sensor_id;sensor_type;location;lat;lon;timestamp;pressure;altitude;pressure_sealevel;temperature;humidity
6782;BME280;3428;42.670;23.284;2024-03-29T00:00:57;50960.72;;;-145.29;47.48
6782;BME280;3428;42.670;23.284;2024-03-29T00:03:24;50956.66;;;-145.29;47.51
6782;BME280;3428;42.670;23.284;2024-03-29T00:05:49;50944.47;;;-145.29;47.87
6782;BME280;3428;42.670;23.284;2024-03-29T00:08:15;50936.34;;;-145.29;47.90
6782;BME280;3428;42.670;23.284;2024-03-29T00:10:41;50924.16;;;-145.29;48.27
6782;BME280;3428;42.670;23.284;2024-03-29T00:13:07;50920.09;;;-145.29;48.37
6782;BME280;3428;42.670;23.284;2024-03-29T00:15:33;50932.28;;;-145.29;48.50
6782;BME280;3428;42.670;23.284;2024-03-29T00:18:00;50936.34;;;-145.29;48.58
6782;BME280;3428;42.670;23.284;2024-03-29T00:20:26;50916.03;;;-145.29;48.54
6782;BME280;3428;42.670;23.284;2024-03-29T00:22:52;50934.31;;;-145.29;48.51
6782;BME280;3428;42.670;23.284;2024-03-29T00:25:18;50948.53;;;-145.29;48.37
6782;BME280;3428;42.670;23.284;2024-03-29T00:27:44;50932.28;;;-145.29;48.61
6782;BME280;3428;42.670;23.284;2024-03-29T00:30:10;50907.91;;;-145.29;48.42
6782;BME280;3428;42.670;23.284;2024-03-29T00:32:36;50952.59;;;-145.29;48.36
6782;BME280;3428;42.670;23.284;2024-03-29T00:35:04;50964.78;;;-145.29;48.77
6782;BME280;3428;42.670;23.284;2024-03-29T00:37:30;50936.34;;;-145.29;48.56
6782;BME280;3428;42.670;23.284;2024-03-29T00:39:56;50946.50;;;-145.29;48.05
6782;BME280;3428;42.670;23.284;2024-03-29T00:42:22;50936.34;;;-145.29;48.05
6782;BME280;3428;42.670;23.284;2024-03-29T00:44:48;50940.41;;;-145.29;48.00
6782;BME280;3428;42.670;23.284;2024-03-29T00:47:14;50944.47;;;-145.29;48.51
6782;BME280;3428;42.670;23.284;2024-03-29T00:49:40;50936.34;;;-145.29;48.87
6782;BME280;3428;42.670;23.284;2024-03-29T00:52:07;50930.25;;;-145.29;48.73
6782;BME280;3428;42.670;23.284;2024-03-29T00:54:33;50928.22;;;-145.29;49.29
6782;BME280;3428;42.670;23.284;2024-03-29T00:56:59;50932.28;;;-145.29;50.17
6782;BME280;3428;42.670;23.284;2024-03-29T00:59:25;50924.16;;;-145.29;50.15
6782;BME280;3428;42.670;23.284;2024-03-29T01:01:51;50944.47;;;-145.29;50.35
6782;BME280;3428;42.670;23.284;2024-03-29T01:04:17;50948.53;;;-145.29;50.46
6782;BME280;3428;42.670;23.284;2024-03-29T01:06:43;50928.22;;;-145.29;50.13
6782;BME280;3428;42.670;23.284;2024-03-29T01:09:10;50936.34;;;-145.29;49.45
6782;BME280;3428;42.670;23.284;2024-03-29T01:11:37;50916.03;;;-145.29;49.27
6782;BME280;3428;42.670;23.284;2024-03-29T01:14:03;50907.91;;;-145.29;49.98
6782;BME280;3428;42.670;23.284;2024-03-29T01:16:28;50930.25;;;-145.29;49.25
6782;BME280;3428;42.670;23.284;2024-03-29T01:18:54;50940.41;;;-145.29;49.32
6782;BME280;3428;42.670;23.284;2024-03-29T01:21:20;50946.50;;;-145.29;49.34
6782;BME280;3428;42.670;23.284;2024-03-29T01:23:46;50911.97;;;-145.29;49.42
6782;BME280;3428;42.670;23.284;2024-03-29T01:26:13;50928.22;;;-145.29;48.84
6782;BME280;3428;42.670;23.284;2024-03-29T01:28:39;50948.53;;;-145.29;48.65
6782;BME280;3428;42.670;23.284;2024-03-29T01:31:05;50932.28;;;-145.29;48.61
6782;BME280;3428;42.670;23.284;2024-03-29T01:33:31;50944.47;;;-145.29;48.56
6782;BME280;3428;42.670;23.284;2024-03-29T01:35:57;50928.22;;;-145.29;48.58
6782;BME280;3428;42.670;23.284;2024-03-29T01:38:23;50924.16;;;-145.29;48.18
6782;BME280;3428;42.670;23.284;2024-03-29T01:40:49;50909.94;;;-145.29;48.40
6782;BME280;3428;42.670;23.284;2024-03-29T01:43:16;50936.34;;;-145.29;48.56
6782;BME280;3428;42.670;23.284;2024-03-29T01:45:48;50932.28;;;-145.29;49.04
6782;BME280;3428;42.670;23.284;2024-03-29T01:48:16;50930.25;;;-145.29;49.23
6782;BME280;3428;42.670;23.284;2024-03-29T01:50:45;50916.03;;;-145.29;49.48
6782;BME280;3428;42.670;23.284;2024-03-29T01:53:12;50936.34;;;-145.29;49.80
6782;BME280;3428;42.670;23.284;2024-03-29T01:55:40;50911.97;;;-145.29;50.12
6782;BME280;3428;42.670;23.284;2024-03-29T01:58:08;50924.16;;;-145.29;50.51
6782;BME280;3428;42.670;23.284;2024-03-29T02:00:39;50924.16;;;-145.29;50.90
6782;BME280;3428;42.670;23.284;2024-03-29T02:03:08;50920.09;;;-145.29;51.18
6782;BME280;3428;42.670;23.284;2024-03-29T02:05:39;50920.09;;;-145.29;51.09
6782;BME280;3428;42.670;23.284;2024-03-29T02:08:07;50916.03;;;-145.29;51.43
6782;BME280;3428;42.670;23.284;2024-03-29T02:10:34;50936.34;;;-145.29;51.72
6782;BME280;3428;42.670;23.284;2024-03-29T02:13:02;50924.16;;;-145.29;51.86
6782;BME280;3428;42.670;23.284;2024-03-29T02:15:29;50916.03;;;-145.29;51.85
6782;BME280;3428;42.670;23.284;2024-03-29T02:17:58;50907.91;;;-145.29;52.48
6782;BME280;3428;42.670;23.284;2024-03-29T02:20:25;50899.78;;;-145.29;52.54
6782;BME280;3428;42.670;23.284;2024-03-29T02:22:54;50911.97;;;-145.29;53.42
6782;BME280;3428;42.670;23.284;2024-03-29T02:25:22;50899.78;;;-145.29;53.38
6782;BME280;3428;42.670;23.284;2024-03-29T02:27:50;50922.13;;;-145.29;53.42
6782;BME280;3428;42.670;23.284;2024-03-29T02:30:18;50916.03;;;-145.29;52.40
6782;BME280;3428;42.670;23.284;2024-03-29T02:32:45;50920.09;;;-145.29;51.95
6782;BME280;3428;42.670;23.284;2024-03-29T02:35:12;50911.97;;;-145.29;51.71
6782;BME280;3428;42.670;23.284;2024-03-29T02:37:39;50916.03;;;-145.29;51.17
6782;BME280;3428;42.670;23.284;2024-03-29T02:40:06;50905.88;;;-145.29;50.96
6782;BME280;3428;42.670;23.284;2024-03-29T02:42:35;50895.72;;;-145.29;51.17
6782;BME280;3428;42.670;23.284;2024-03-29T02:45:03;50920.09;;;-145.29;51.39
6782;BME280;3428;42.670;23.284;2024-03-29T02:47:30;50936.34;;;-145.29;51.37
6782;BME280;3428;42.670;23.284;2024-03-29T02:49:56;50924.16;;;-145.29;52.96
6782;BME280;3428;42.670;23.284;2024-03-29T02:52:23;50924.16;;;-145.29;52.99
6782;BME280;3428;42.670;23.284;2024-03-29T02:54:49;50907.91;;;-145.29;52.80
6782;BME280;3428;42.670;23.284;2024-03-29T02:57:15;50930.25;;;-145.29;52.74
6782;BME280;3428;42.670;23.284;2024-03-29T02:59:43;50928.22;;;-145.29;53.04
6782;BME280;3428;42.670;23.284;2024-03-29T03:02:10;50907.91;;;-145.29;52.74
6782;BME280;3428;42.670;23.284;2024-03-29T03:04:36;50907.91;;;-145.29;52.92
6782;BME280;3428;42.670;23.284;2024-03-29T03:07:02;50899.78;;;-145.29;52.94
6782;BME280;3428;42.670;23.284;2024-03-29T03:09:43;50920.09;;;-145.29;53.03
6782;BME280;3428;42.670;23.284;2024-03-29T03:12:29;50911.97;;;-145.29;52.74
6782;BME280;3428;42.670;23.284;2024-03-29T03:14:57;50932.28;;;-145.29;52.75
6782;BME280;3428;42.670;23.284;2024-03-29T03:17:25;50907.91;;;-145.29;52.92
6782;BME280;3428;42.670;23.284;2024-03-29T03:19:52;50911.97;;;-145.29;53.34
6782;BME280;3428;42.670;23.284;2024-03-29T03:22:18;50911.97;;;-145.29;53.55
6782;BME280;3428;42.670;23.284;2024-03-29T03:24:45;50907.91;;;-145.29;53.86
6782;BME280;3428;42.670;23.284;2024-03-29T03:27:11;50932.28;;;-145.29;54.59
6782;BME280;3428;42.670;23.284;2024-03-29T03:29:39;50916.03;;;-145.29;54.55
6782;BME280;3428;42.670;23.284;2024-03-29T03:32:07;50903.84;;;-145.29;55.29
6782;BME280;3428;42.670;23.284;2024-03-29T03:34:33;50903.84;;;-145.29;55.49
6782;BME280;3428;42.670;23.284;2024-03-29T03:36:59;50907.91;;;-145.29;54.98
6782;BME280;3428;42.670;23.284;2024-03-29T03:39:26;50901.81;;;-145.29;54.49
6782;BME280;3428;42.670;23.284;2024-03-29T03:41:52;50920.09;;;-145.29;55.38
6782;BME280;3428;42.670;23.284;2024-03-29T03:44:19;50911.97;;;-145.29;55.50
6782;BME280;3428;42.670;23.284;2024-03-29T03:46:47;50936.34;;;-145.29;55.43
6782;BME280;3428;42.670;23.284;2024-03-29T03:49:15;50903.84;;;-145.29;55.99
6782;BME280;3428;42.670;23.284;2024-03-29T03:51:41;50907.91;;;-145.29;56.22
6782;BME280;3428;42.670;23.284;2024-03-29T03:54:08;50926.19;;;-145.29;56.63
6782;BME280;3428;42.670;23.284;2024-03-29T03:56:35;50905.88;;;-145.29;57.02
6782;BME280;3428;42.670;23.284;2024-03-29T03:59:01;50903.84;;;-145.29;56.48
6782;BME280;3428;42.670;23.284;2024-03-29T04:01:28;50903.84;;;-145.29;56.18
6782;BME280;3428;42.670;23.284;2024-03-29T04:03:53;50916.03;;;-145.29;55.80
6782;BME280;3428;42.670;23.284;2024-03-29T04:06:22;50879.47;;;-145.29;56.00
6782;BME280;3428;42.670;23.284;2024-03-29T04:08:48;50936.34;;;-145.29;55.47
6782;BME280;3428;42.670;23.284;2024-03-29T04:11:15;50899.78;;;-145.29;55.16
6782;BME280;3428;42.670;23.284;2024-03-29T04:13:42;50899.78;;;-145.29;55.86
6782;BME280;3428;42.670;23.284;2024-03-29T04:16:09;50924.16;;;-145.29;55.83
6782;BME280;3428;42.670;23.284;2024-03-29T04:18:35;50907.91;;;-145.29;55.06
6782;BME280;3428;42.670;23.284;2024-03-29T04:21:03;50907.91;;;-145.29;54.96
6782;BME280;3428;42.670;23.284;2024-03-29T04:23:31;50907.91;;;-145.29;56.00
6782;BME280;3428;42.670;23.284;2024-03-29T04:25:59;50907.91;;;-145.29;56.36
6782;BME280;3428;42.670;23.284;2024-03-29T04:28:25;50911.97;;;-145.29;55.32
6782;BME280;3428;42.670;23.284;2024-03-29T04:30:53;50911.97;;;-145.29;55.92
6782;BME280;3428;42.670;23.284;2024-03-29T04:33:19;50911.97;;;-145.29;56.08
6782;BME280;3428;42.670;23.284;2024-03-29T04:35:56;50916.03;;;-145.29;55.55
6782;BME280;3428;42.670;23.284;2024-03-29T04:38:22;50903.84;;;-145.29;53.88
6782;BME280;3428;42.670;23.284;2024-03-29T04:40:51;50901.81;;;-145.29;53.28
6782;BME280;3428;42.670;23.284;2024-03-29T04:43:18;50914.00;;;-145.29;52.96
6782;BME280;3428;42.670;23.284;2024-03-29T04:45:45;50936.34;;;-145.29;52.43
6782;BME280;3428;42.670;23.284;2024-03-29T04:48:12;50905.88;;;-145.29;52.28
6782;BME280;3428;42.670;23.284;2024-03-29T04:50:39;50911.97;;;-145.29;52.05
6782;BME280;3428;42.670;23.284;2024-03-29T04:53:07;50903.84;;;-145.29;52.10
6782;BME280;3428;42.670;23.284;2024-03-29T04:55:34;50899.78;;;-145.29;51.90
6782;BME280;3428;42.670;23.284;2024-03-29T04:58:03;50920.09;;;-145.29;51.77
6782;BME280;3428;42.670;23.284;2024-03-29T05:00:30;50899.78;;;-145.29;51.39
6782;BME280;3428;42.670;23.284;2024-03-29T05:02:56;50936.34;;;-145.29;51.29
6782;BME280;3428;42.670;23.284;2024-03-29T05:05:23;50924.16;;;-145.29;50.86
6782;BME280;3428;42.670;23.284;2024-03-29T05:07:50;50905.88;;;-145.29;50.79
6782;BME280;3428;42.670;23.284;2024-03-29T05:10:17;50891.66;;;-145.29;50.62
6782;BME280;3428;42.670;23.284;2024-03-29T05:12:45;50932.28;;;-145.29;51.31
6782;BME280;3428;42.670;23.284;2024-03-29T05:15:14;50909.94;;;-145.29;51.65
6782;BME280;3428;42.670;23.284;2024-03-29T05:17:40;50895.72;;;-145.29;51.72
6782;BME280;3428;42.670;23.284;2024-03-29T05:20:08;50907.91;;;-145.29;52.94
6782;BME280;3428;42.670;23.284;2024-03-29T05:22:35;50934.31;;;-145.29;52.75
6782;BME280;3428;42.670;23.284;2024-03-29T05:25:02;50926.19;;;-145.29;52.61
6782;BME280;3428;42.670;23.284;2024-03-29T05:27:30;50914.00;;;-145.29;51.64
6782;BME280;3428;42.670;23.284;2024-03-29T05:29:57;50903.84;;;-145.29;51.37
6782;BME280;3428;42.670;23.284;2024-03-29T05:32:26;50905.88;;;-145.29;51.65
6782;BME280;3428;42.670;23.284;2024-03-29T05:34:54;50907.91;;;-145.29;51.28
6782;BME280;3428;42.670;23.284;2024-03-29T05:37:21;50924.16;;;-145.29;51.45
6782;BME280;3428;42.670;23.284;2024-03-29T05:39:50;50911.97;;;-145.29;52.79
6782;BME280;3428;42.670;23.284;2024-03-29T05:42:24;50920.09;;;-145.29;50.76
6782;BME280;3428;42.670;23.284;2024-03-29T05:44:51;50960.72;;;-145.29;50.33
6782;BME280;3428;42.670;23.284;2024-03-29T05:47:18;50914.00;;;-145.29;49.80
6782;BME280;3428;42.670;23.284;2024-03-29T05:49:47;50924.16;;;-145.29;49.61
6782;BME280;3428;42.670;23.284;2024-03-29T05:52:14;50916.03;;;-145.29;49.00
6782;BME280;3428;42.670;23.284;2024-03-29T05:54:42;50924.16;;;-145.29;48.49
6782;BME280;3428;42.670;23.284;2024-03-29T05:57:09;50920.09;;;-145.29;48.22
6782;BME280;3428;42.670;23.284;2024-03-29T05:59:37;50948.53;;;-145.29;47.90
6782;BME280;3428;42.670;23.284;2024-03-29T06:02:04;50930.25;;;-145.29;47.58
6782;BME280;3428;42.670;23.284;2024-03-29T06:04:31;50928.22;;;-145.29;47.32
6782;BME280;3428;42.670;23.284;2024-03-29T06:07:00;50950.56;;;-145.29;46.77
6782;BME280;3428;42.670;23.284;2024-03-29T06:09:27;50938.38;;;-145.29;46.00
6782;BME280;3428;42.670;23.284;2024-03-29T06:11:54;50911.97;;;-145.29;44.87
6782;BME280;3428;42.670;23.284;2024-03-29T06:14:22;50948.53;;;-145.29;44.53
6782;BME280;3428;42.670;23.284;2024-03-29T06:17:06;50952.59;;;-145.29;44.56
6782;BME280;3428;42.670;23.284;2024-03-29T06:19:53;50940.41;;;-145.29;44.36
6782;BME280;3428;42.670;23.284;2024-03-29T06:22:23;50934.31;;;-145.29;44.04
6782;BME280;3428;42.670;23.284;2024-03-29T06:24:50;50944.47;;;-145.29;43.92
6782;BME280;3428;42.670;23.284;2024-03-29T06:27:18;50948.53;;;-145.29;43.95
6782;BME280;3428;42.670;23.284;2024-03-29T06:29:48;50940.41;;;-145.29;43.45
6782;BME280;3428;42.670;23.284;2024-03-29T06:32:15;50903.84;;;-145.29;43.06
6782;BME280;3428;42.670;23.284;2024-03-29T06:34:46;50936.34;;;-145.29;42.59
6782;BME280;3428;42.670;23.284;2024-03-29T06:37:13;50928.22;;;-145.29;42.85
6782;BME280;3428;42.670;23.284;2024-03-29T06:39:41;50932.28;;;-145.29;42.85
6782;BME280;3428;42.670;23.284;2024-03-29T06:42:08;50944.47;;;-145.29;42.55
6782;BME280;3428;42.670;23.284;2024-03-29T06:44:36;50936.34;;;-145.29;42.56
6782;BME280;3428;42.670;23.284;2024-03-29T06:47:03;50948.53;;;-145.29;42.45
6782;BME280;3428;42.670;23.284;2024-03-29T06:49:30;50924.16;;;-145.29;42.41
6782;BME280;3428;42.670;23.284;2024-03-29T06:51:58;50936.34;;;-145.29;42.07
6782;BME280;3428;42.670;23.284;2024-03-29T06:54:26;50940.41;;;-145.29;41.92
6782;BME280;3428;42.670;23.284;2024-03-29T06:56:55;50960.72;;;-145.29;42.15
6782;BME280;3428;42.670;23.284;2024-03-29T06:59:23;50924.16;;;-145.29;42.22
6782;BME280;3428;42.670;23.284;2024-03-29T07:01:50;50952.59;;;-145.29;42.10
6782;BME280;3428;42.670;23.284;2024-03-29T07:04:18;50960.72;;;-145.29;42.21
6782;BME280;3428;42.670;23.284;2024-03-29T07:06:46;50928.22;;;-145.29;42.44
6782;BME280;3428;42.670;23.284;2024-03-29T07:09:17;50964.78;;;-145.29;42.23
6782;BME280;3428;42.670;23.284;2024-03-29T07:11:45;50960.72;;;-145.29;42.54
6782;BME280;3428;42.670;23.284;2024-03-29T07:14:14;50932.28;;;-145.29;42.05
6782;BME280;3428;42.670;23.284;2024-03-29T07:16:41;50952.59;;;-145.29;41.92
6782;BME280;3428;42.670;23.284;2024-03-29T07:19:08;50948.53;;;-145.29;41.89
6782;BME280;3428;42.670;23.284;2024-03-29T07:21:38;50944.47;;;-145.29;41.31
6782;BME280;3428;42.670;23.284;2024-03-29T07:24:05;50944.47;;;-145.29;41.50
6782;BME280;3428;42.670;23.284;2024-03-29T07:26:32;50960.72;;;-145.29;41.60
6782;BME280;3428;42.670;23.284;2024-03-29T07:28:59;50968.84;;;-145.29;41.84
6782;BME280;3428;42.670;23.284;2024-03-29T07:31:27;50928.22;;;-145.29;41.75
6782;BME280;3428;42.670;23.284;2024-03-29T07:33:54;50952.59;;;-145.29;40.66
6782;BME280;3428;42.670;23.284;2024-03-29T07:36:21;50972.91;;;-145.29;40.73
6782;BME280;3428;42.670;23.284;2024-03-29T07:38:51;50964.78;;;-145.29;41.12
6782;BME280;3428;42.670;23.284;2024-03-29T07:41:18;50956.66;;;-145.29;41.16
6782;BME280;3428;42.670;23.284;2024-03-29T07:43:52;50940.41;;;-145.29;41.10
6782;BME280;3428;42.670;23.284;2024-03-29T07:46:20;50940.41;;;-145.29;41.12
6782;BME280;3428;42.670;23.284;2024-03-29T07:48:48;50954.63;;;-145.29;41.07
6782;BME280;3428;42.670;23.284;2024-03-29T07:51:15;50944.47;;;-145.29;40.78
6782;BME280;3428;42.670;23.284;2024-03-29T07:53:42;50960.72;;;-145.29;40.52
6782;BME280;3428;42.670;23.284;2024-03-29T07:56:10;50956.66;;;-145.29;40.17
6782;BME280;3428;42.670;23.284;2024-03-29T07:58:36;50972.91;;;-145.29;40.33
6782;BME280;3428;42.670;23.284;2024-03-29T08:01:03;50972.91;;;-145.29;40.41
6782;BME280;3428;42.670;23.284;2024-03-29T08:03:31;50968.84;;;-145.29;40.47
6782;BME280;3428;42.670;23.284;2024-03-29T08:06:02;50972.91;;;-145.29;40.51
6782;BME280;3428;42.670;23.284;2024-03-29T08:08:30;50942.44;;;-145.29;40.52
6782;BME280;3428;42.670;23.284;2024-03-29T08:10:57;50946.50;;;-145.29;40.73
6782;BME280;3428;42.670;23.284;2024-03-29T08:13:24;50952.59;;;-145.29;40.81
6782;BME280;3428;42.670;23.284;2024-03-29T08:15:56;50968.84;;;-145.29;40.46
6782;BME280;3428;42.670;23.284;2024-03-29T08:18:24;50952.59;;;-145.29;40.33
6782;BME280;3428;42.670;23.284;2024-03-29T08:20:51;50964.78;;;-145.29;40.28
6782;BME280;3428;42.670;23.284;2024-03-29T08:23:21;50964.78;;;-145.29;40.32
6782;BME280;3428;42.670;23.284;2024-03-29T08:25:47;50968.84;;;-145.29;40.08
6782;BME280;3428;42.670;23.284;2024-03-29T08:28:14;50972.91;;;-145.29;40.04
6782;BME280;3428;42.670;23.284;2024-03-29T08:30:40;50960.72;;;-145.29;39.98
6782;BME280;3428;42.670;23.284;2024-03-29T08:33:07;50968.84;;;-145.29;39.97
6782;BME280;3428;42.670;23.284;2024-03-29T08:35:34;50964.78;;;-145.29;39.85
6782;BME280;3428;42.670;23.284;2024-03-29T08:38:01;50952.59;;;-145.29;39.80
6782;BME280;3428;42.670;23.284;2024-03-29T08:40:30;50960.72;;;-145.29;39.61
6782;BME280;3428;42.670;23.284;2024-03-29T08:42:59;50944.47;;;-145.29;39.19
6782;BME280;3428;42.670;23.284;2024-03-29T08:45:26;50948.53;;;-145.29;39.06
6782;BME280;3428;42.670;23.284;2024-03-29T08:47:53;50968.84;;;-145.29;38.68
6782;BME280;3428;42.670;23.284;2024-03-29T08:50:20;50968.84;;;-145.29;38.88
6782;BME280;3428;42.670;23.284;2024-03-29T08:52:47;50958.69;;;-145.29;38.66
6782;BME280;3428;42.670;23.284;2024-03-29T08:55:14;50972.91;;;-145.29;38.36
6782;BME280;3428;42.670;23.284;2024-03-29T08:57:42;50976.97;;;-145.29;38.23
6782;BME280;3428;42.670;23.284;2024-03-29T09:00:10;50960.72;;;-145.29;40.72
6782;BME280;3428;42.670;23.284;2024-03-29T09:02:37;50985.09;;;-145.29;38.26
6782;BME280;3428;42.670;23.284;2024-03-29T09:05:05;50952.59;;;-145.29;37.10
6782;BME280;3428;42.670;23.284;2024-03-29T09:07:32;50972.91;;;-145.29;36.55
6782;BME280;3428;42.670;23.284;2024-03-29T09:09:59;50968.84;;;-145.29;36.36
6782;BME280;3428;42.670;23.284;2024-03-29T09:12:26;50993.22;;;-145.29;36.44
6782;BME280;3428;42.670;23.284;2024-03-29T09:14:54;50979.00;;;-145.29;36.48
6782;BME280;3428;42.670;23.284;2024-03-29T09:17:21;50993.22;;;-145.29;36.17
6782;BME280;3428;42.670;23.284;2024-03-29T09:19:50;50964.78;;;-145.29;35.90
6782;BME280;3428;42.670;23.284;2024-03-29T09:22:18;50972.91;;;-145.29;36.15
6782;BME280;3428;42.670;23.284;2024-03-29T09:24:45;50987.13;;;-145.29;34.43
6782;BME280;3428;42.670;23.284;2024-03-29T09:27:12;50981.03;;;-145.29;37.41
6782;BME280;3428;42.670;23.284;2024-03-29T09:29:39;50981.03;;;-145.29;35.29
6782;BME280;3428;42.670;23.284;2024-03-29T09:32:08;50997.28;;;-145.29;35.02
6782;BME280;3428;42.670;23.284;2024-03-29T09:34:35;50981.03;;;-145.29;35.50
6782;BME280;3428;42.670;23.284;2024-03-29T09:37:02;50976.97;;;-145.29;35.80
6782;BME280;3428;42.670;23.284;2024-03-29T09:39:29;50976.97;;;-145.29;35.04
6782;BME280;3428;42.670;23.284;2024-03-29T09:41:58;50968.84;;;-145.29;35.14
6782;BME280;3428;42.670;23.284;2024-03-29T09:44:32;50989.16;;;-145.29;35.21
6782;BME280;3428;42.670;23.284;2024-03-29T09:47:03;50997.28;;;-145.29;35.00
6782;BME280;3428;42.670;23.284;2024-03-29T09:49:32;51005.41;;;-145.29;34.45
6782;BME280;3428;42.670;23.284;2024-03-29T09:51:59;50983.06;;;-145.29;35.07
6782;BME280;3428;42.670;23.284;2024-03-29T09:54:27;50968.84;;;-145.29;35.08
6782;BME280;3428;42.670;23.284;2024-03-29T09:56:55;51001.34;;;-145.29;34.55
6782;BME280;3428;42.670;23.284;2024-03-29T09:59:22;50985.09;;;-145.29;39.14
6782;BME280;3428;42.670;23.284;2024-03-29T10:01:50;50993.22;;;-145.29;35.50
6782;BME280;3428;42.670;23.284;2024-03-29T10:04:20;50981.03;;;-145.29;35.04
6782;BME280;3428;42.670;23.284;2024-03-29T10:06:49;50956.66;;;-145.29;34.92
6782;BME280;3428;42.670;23.284;2024-03-29T10:09:17;50989.16;;;-145.29;35.29
6782;BME280;3428;42.670;23.284;2024-03-29T10:11:45;50997.28;;;-145.29;34.58
6782;BME280;3428;42.670;23.284;2024-03-29T10:14:12;50989.16;;;-145.29;34.61
6782;BME280;3428;42.670;23.284;2024-03-29T10:16:39;50972.91;;;-145.29;34.42
6782;BME280;3428;42.670;23.284;2024-03-29T10:19:07;51007.44;;;-145.29;34.59
6782;BME280;3428;42.670;23.284;2024-03-29T10:21:35;50991.19;;;-145.29;34.48
6782;BME280;3428;42.670;23.284;2024-03-29T10:24:12;51003.38;;;-145.29;34.45
6782;BME280;3428;42.670;23.284;2024-03-29T10:26:40;50964.78;;;-145.29;34.07
6782;BME280;3428;42.670;23.284;2024-03-29T10:29:07;50968.84;;;-145.29;34.16
6782;BME280;3428;42.670;23.284;2024-03-29T10:31:34;50995.25;;;-145.29;34.79
6782;BME280;3428;42.670;23.284;2024-03-29T10:34:03;51009.47;;;-145.29;34.34
6782;BME280;3428;42.670;23.284;2024-03-29T10:36:32;51041.97;;;-145.29;36.02
6782;BME280;3428;42.670;23.284;2024-03-29T10:39:02;50989.16;;;-145.29;35.03
6782;BME280;3428;42.670;23.284;2024-03-29T10:41:39;50997.28;;;-145.29;34.31
6782;BME280;3428;42.670;23.284;2024-03-29T10:44:09;51017.59;;;-145.29;34.05
6782;BME280;3428;42.670;23.284;2024-03-29T10:46:37;50997.28;;;-145.29;34.38
6782;BME280;3428;42.670;23.284;2024-03-29T10:49:07;51003.38;;;-145.29;34.58
6782;BME280;3428;42.670;23.284;2024-03-29T10:51:36;50976.97;;;-145.29;34.36
6782;BME280;3428;42.670;23.284;2024-03-29T10:54:05;50989.16;;;-145.29;34.49
6782;BME280;3428;42.670;23.284;2024-03-29T10:56:34;50993.22;;;-145.29;34.44
6782;BME280;3428;42.670;23.284;2024-03-29T10:59:06;50985.09;;;-145.29;34.33
6782;BME280;3428;42.670;23.284;2024-03-29T11:01:38;51009.47;;;-145.29;34.31
6782;BME280;3428;42.670;23.284;2024-03-29T11:04:12;51015.56;;;-145.29;34.41
6782;BME280;3428;42.670;23.284;2024-03-29T11:06:40;51013.53;;;-145.29;34.64
6782;BME280;3428;42.670;23.284;2024-03-29T11:09:11;50985.09;;;-145.29;34.80
6782;BME280;3428;42.670;23.284;2024-03-29T11:11:40;50976.97;;;-145.29;34.89
6782;BME280;3428;42.670;23.284;2024-03-29T11:14:15;51009.47;;;-145.29;34.48
6782;BME280;3428;42.670;23.284;2024-03-29T11:16:44;51029.78;;;-145.29;34.49
6782;BME280;3428;42.670;23.284;2024-03-29T11:19:14;50993.22;;;-145.29;34.67
6782;BME280;3428;42.670;23.284;2024-03-29T11:21:42;51015.56;;;-145.29;34.33
6782;BME280;3428;42.670;23.284;2024-03-29T11:24:16;51005.41;;;-145.29;34.41
6782;BME280;3428;42.670;23.284;2024-03-29T11:26:45;51023.69;;;-145.29;33.95
6782;BME280;3428;42.670;23.284;2024-03-29T11:29:19;50989.16;;;-145.29;34.11
6782;BME280;3428;42.670;23.284;2024-03-29T11:31:47;51025.72;;;-145.29;34.10
6782;BME280;3428;42.670;23.284;2024-03-29T11:34:19;51003.38;;;-145.29;34.61
6782;BME280;3428;42.670;23.284;2024-03-29T11:36:46;51013.53;;;-145.29;34.43
6782;BME280;3428;42.670;23.284;2024-03-29T11:39:20;51009.47;;;-145.29;34.40
6782;BME280;3428;42.670;23.284;2024-03-29T11:41:47;51017.59;;;-145.29;34.58
6782;BME280;3428;42.670;23.284;2024-03-29T11:44:15;51021.66;;;-145.29;34.56
6782;BME280;3428;42.670;23.284;2024-03-29T11:46:43;51029.78;;;-145.29;34.34
6782;BME280;3428;42.670;23.284;2024-03-29T11:49:10;51009.47;;;-145.29;34.12
6782;BME280;3428;42.670;23.284;2024-03-29T11:51:37;51009.47;;;-145.29;34.11
6782;BME280;3428;42.670;23.284;2024-03-29T11:54:04;51013.53;;;-145.29;34.24
6782;BME280;3428;42.670;23.284;2024-03-29T11:56:31;51017.59;;;-145.29;34.58
6782;BME280;3428;42.670;23.284;2024-03-29T11:58:58;51015.56;;;-145.29;34.50
6782;BME280;3428;42.670;23.284;2024-03-29T12:01:26;51021.66;;;-145.29;34.12
6782;BME280;3428;42.670;23.284;2024-03-29T12:03:56;51021.66;;;-145.29;34.37
6782;BME280;3428;42.670;23.284;2024-03-29T12:06:23;51029.78;;;-145.29;34.49
6782;BME280;3428;42.670;23.284;2024-03-29T12:08:50;50993.22;;;-145.29;34.36
6782;BME280;3428;42.670;23.284;2024-03-29T12:11:18;51021.66;;;-145.29;34.58
6782;BME280;3428;42.670;23.284;2024-03-29T12:13:45;51037.91;;;-145.29;34.24
6782;BME280;3428;42.670;23.284;2024-03-29T12:16:12;51017.59;;;-145.29;33.92
6782;BME280;3428;42.670;23.284;2024-03-29T12:18:39;51021.66;;;-145.29;33.80
6782;BME280;3428;42.670;23.284;2024-03-29T12:21:07;51046.03;;;-145.29;32.91
6782;BME280;3428;42.670;23.284;2024-03-29T12:23:35;51029.78;;;-145.29;32.97
6782;BME280;3428;42.670;23.284;2024-03-29T12:26:02;51021.66;;;-145.29;33.12
6782;BME280;3428;42.670;23.284;2024-03-29T12:28:29;51037.91;;;-145.29;33.18
6782;BME280;3428;42.670;23.284;2024-03-29T12:30:59;51013.53;;;-145.29;33.09
6782;BME280;3428;42.670;23.284;2024-03-29T12:33:26;51021.66;;;-145.29;32.79
6782;BME280;3428;42.670;23.284;2024-03-29T12:35:54;51033.84;;;-145.29;32.80
6782;BME280;3428;42.670;23.284;2024-03-29T12:38:22;51033.84;;;-145.29;32.46
6782;BME280;3428;42.670;23.284;2024-03-29T12:40:50;51058.22;;;-145.29;32.38
6782;BME280;3428;42.670;23.284;2024-03-29T12:43:20;51050.09;;;-145.29;31.97
6782;BME280;3428;42.670;23.284;2024-03-29T12:45:48;51046.03;;;-145.29;31.77
6782;BME280;3428;42.670;23.284;2024-03-29T12:48:17;51058.22;;;-145.29;31.62
6782;BME280;3428;42.670;23.284;2024-03-29T12:50:45;51041.97;;;-145.29;31.65
6782;BME280;3428;42.670;23.284;2024-03-29T12:53:13;51066.38;;;-145.29;31.70